Time;durP1;ratioP1;P1;durP2;ratioP2;P2;SDS_P1;SDS_P2;PMS_P1;PMS_P2;Temp;Humidity;BMP_temperature;BMP_pressure;BME280_temperature;BME280_humidity;BME280_pressure;Samples;Min_cycle;Max_cycle;Signal;HPM_P1;HPM_P2
2023/11/15 00:01:08;;;;;;;18.30;9.90;;;;;;;-144.05;90.51;56989.00;4996755;28;20467;-85
2023/11/15 00:03:35;;;;;;;17.77;9.45;;;;;;;-144.05;91.14;57016.63;4996330;28;20176;-85
2023/11/15 00:06:01;;;;;;;20.48;9.90;;;;;;;-144.05;90.57;57003.88;4997377;28;20037;-82
2023/11/15 00:08:27;;;;;;;22.48;9.77;;;;;;;-144.05;91.10;57023.00;5013622;28;20101;-84
2023/11/15 00:10:54;;;;;;;15.05;8.95;;;;;;;-144.05;90.82;57010.25;4996145;28;20026;-84
2023/11/15 00:13:20;;;;;;;20.55;9.23;;;;;;;-144.05;90.28;56974.16;4993765;28;20026;-84
2023/11/15 00:15:46;;;;;;;22.50;9.35;;;;;;;-144.05;90.63;57012.38;4996942;28;20030;-83
2023/11/15 00:18:13;;;;;;;14.10;8.85;;;;;;;-144.05;91.04;57001.75;4996610;28;20377;-84
2023/11/15 00:21:03;;;;;;;20.20;9.85;;;;;;;-144.05;90.69;57029.38;5060752;28;20372;-86
2023/11/15 00:23:30;;;;;;;19.77;8.60;;;;;;;-144.05;90.75;56995.38;5053529;28;20057;-84
2023/11/15 00:25:56;;;;;;;16.45;9.05;;;;;;;-144.05;90.77;56999.63;5043210;28;20491;-85
2023/11/15 00:28:22;;;;;;;17.17;9.00;;;;;;;-144.05;90.48;57012.38;5051323;28;20117;-79
2023/11/15 00:30:49;;;;;;;21.30;8.25;;;;;;;-144.05;90.87;56991.13;5076438;22;20029;-89
2023/11/15 00:33:15;;;;;;;13.70;7.95;;;;;;;-144.05;91.04;57023.00;5072128;28;20123;-84
2023/11/15 00:35:41;;;;;;;15.23;7.43;;;;;;;-144.05;90.30;57008.13;5070661;28;20043;-83
2023/11/15 00:38:08;;;;;;;14.10;7.60;;;;;;;-144.05;89.91;57008.13;5090490;28;20251;-85
2023/11/15 00:40:35;;;;;;;12.20;6.75;;;;;;;-144.05;89.71;56999.63;5086097;28;20040;-82
2023/11/15 00:43:03;;;;;;;16.40;6.80;;;;;;;-144.05;90.12;57006.00;5062496;28;20055;-82
2023/11/15 00:45:30;;;;;;;16.02;6.68;;;;;;;-144.05;90.38;57016.63;5056164;28;20478;-86
2023/11/15 00:47:56;;;;;;;17.55;6.75;;;;;;;-144.05;90.02;57020.88;5050104;28;20032;-82
2023/11/15 00:50:23;;;;;;;13.57;6.28;;;;;;;-144.05;90.16;57020.88;5050018;28;20033;-87
2023/11/15 00:52:49;;;;;;;16.30;6.05;;;;;;;-144.05;89.88;56984.78;5049184;28;20048;-87
2023/11/15 00:55:16;;;;;;;15.43;6.13;;;;;;;-144.05;89.27;56997.50;5050356;28;20083;-83
2023/11/15 00:57:44;;;;;;;18.65;8.07;;;;;;;-144.05;90.04;57014.50;5049085;28;20037;-86
2023/11/15 01:00:23;;;;;;;13.15;6.05;;;;;;;-144.05;89.39;57018.75;5050712;28;20053;-88
2023/11/15 01:02:54;;;;;;;11.70;5.68;;;9.80;99.90;;;-144.05;89.26;57023.00;5032291;28;20108;-86
2023/11/15 01:05:21;;;;;;;11.48;4.90;;;;;;;-144.05;89.36;57018.75;5066311;28;20027;-84
2023/11/15 01:07:47;;;;;;;15.35;5.80;;;;;;;-144.05;89.17;57040.00;5049319;28;20422;-86
2023/11/15 01:10:14;;;;;;;11.57;4.75;;;;;;;-144.05;89.41;57001.75;5032740;28;20048;-85
2023/11/15 01:12:41;;;;;;;17.45;5.05;;;9.90;99.90;;;-144.05;90.05;56980.53;5032152;28;20052;-85
2023/11/15 01:15:11;;;;;;;10.70;5.18;;;;;;;-144.05;90.14;56995.38;5050472;28;20057;-89
2023/11/15 01:17:38;;;;;;;15.32;5.05;;;;;;;-144.05;89.73;57025.13;5064909;28;20025;-85
2023/11/15 01:20:06;;;;;;;10.30;3.90;;;9.50;99.90;;;-144.05;90.14;57018.75;5050199;28;20040;-85
2023/11/15 01:22:32;;;;;;;14.18;4.00;;;;;;;-144.05;89.75;56976.28;5049396;28;20021;-87
2023/11/15 01:24:58;;;;;;;12.30;3.78;;;;;;;-144.05;89.08;57006.00;5050658;28;20037;-86
2023/11/15 01:27:25;;;;;;;14.10;3.78;;;9.70;99.90;;;-144.05;89.56;56993.25;5051380;28;20079;-83
2023/11/15 01:29:52;;;;;;;11.60;3.65;;;;;;;-144.05;90.18;56995.38;5050488;28;20025;-84
2023/11/15 01:32:19;;;;;;;13.88;3.45;;;;;;;-144.05;89.87;56986.91;5037136;28;20163;-87
2023/11/15 01:34:45;;;;;;;8.30;2.88;;;;;;;-144.05;90.13;56997.50;5036497;28;20032;-86
2023/11/15 01:37:11;;;;;;;7.75;3.17;;;;;;;-144.05;90.47;57012.38;5037586;28;20432;-86
2023/11/15 01:39:38;;;;;;;7.72;2.58;;;;;;;-144.05;89.39;56965.66;5034885;28;20025;-83
2023/11/15 01:42:04;;;;;;;5.97;2.83;;;;;;;-144.05;90.11;57020.88;5034719;28;20033;-85
2023/11/15 01:44:33;;;;;;;9.23;3.20;;;;;;;-144.05;89.71;57025.13;5034511;28;20037;-84
2023/11/15 01:47:00;;;;;;;13.38;3.22;;;;;;;-144.05;89.22;57023.00;5028806;28;20031;-86
2023/11/15 01:49:27;;;;;;;6.97;2.35;;;;;;;-144.05;89.39;57018.75;5037337;28;20233;-85
2023/11/15 01:51:54;;;;;;;6.25;2.47;;;9.60;99.90;;;-144.05;89.86;56989.00;5035422;28;20044;-87
2023/11/15 01:54:23;;;;;;;9.07;2.33;;;9.60;99.90;;;-144.05;89.29;57027.25;5051904;28;20037;-85
2023/11/15 01:56:50;;;;;;;9.60;2.15;;;;;;;-144.05;89.71;57010.25;5035243;28;20034;-86
2023/11/15 01:59:17;;;;;;;9.52;2.47;;;;;;;-144.05;89.56;56980.53;5035713;28;20033;-88
2023/11/15 02:01:43;;;;;;;7.18;2.20;;;;;;;-144.05;89.08;57006.00;5051305;28;20064;-82
2023/11/15 02:04:09;;;;;;;8.57;2.38;;;;;;;-144.05;88.89;57003.88;5015269;28;20419;-83
2023/11/15 02:06:37;;;;;;;6.82;1.95;;;;;;;-144.05;88.05;57023.00;5015993;28;20121;-84
2023/11/15 02:09:07;;;;;;;5.63;1.63;;;;;;;-144.05;88.07;57025.13;5036055;28;20104;-87
2023/11/15 02:11:35;;;;;;;3.85;1.20;;;;;;;-144.05;88.03;57027.25;5035931;28;20049;-88
2023/11/15 02:14:01;;;;;;;6.57;1.38;;;;;;;-144.05;88.12;57012.38;5036019;28;20057;-83
2023/11/15 02:16:28;;;;;;;14.18;1.45;;;;;;;-144.05;88.24;57006.00;5036372;28;20061;-85
2023/11/15 02:18:54;;;;;;;6.65;1.58;;;;;;;-144.05;88.42;57006.00;5036424;28;20029;-83
2023/11/15 02:21:20;;;;;;;4.10;1.27;;;;;;;-144.05;87.76;57018.75;5036113;28;20021;-86
2023/11/15 02:23:47;;;;;;;4.45;1.27;;;;;;;-144.05;87.91;57008.13;5036350;28;20022;-84
2023/11/15 02:26:13;;;;;;;4.78;1.52;;;;;;;-144.05;87.15;56993.25;5036566;28;20026;-85
2023/11/15 02:28:40;;;;;;;2.90;1.00;;;;;;;-144.05;87.44;57008.13;5036026;28;20406;-87
2023/11/15 02:31:08;;;;;;;6.75;1.20;;;;;;;-144.05;87.56;57014.50;5030673;28;20037;-84
2023/11/15 02:33:35;;;;;;;7.38;1.70;;;;;;;-144.05;88.00;57018.75;5016071;28;20036;-85
2023/11/15 02:36:01;;;;;;;10.57;1.50;;;;;;;-144.05;88.26;57018.75;5033942;28;20450;-86
2023/11/15 02:38:27;;;;;;;7.97;3.50;;;;;;;-144.05;88.88;57018.75;5035618;28;20029;-86
2023/11/15 02:40:54;;;;;;;7.72;2.60;;;;;;;-144.05;88.68;56978.41;5036858;28;20486;-89
2023/11/15 02:43:20;;;;;;;10.18;3.42;;;;;;;-144.05;89.10;57027.25;5030074;28;20047;-84
2023/11/15 02:45:47;;;;;;;15.57;4.20;;;;;;;-144.05;89.20;56991.13;5058863;28;20026;-82
2023/11/15 02:48:14;;;;;;;7.85;3.60;;;;;;;-144.05;88.87;57003.88;5042455;28;20018;-86
2023/11/15 02:50:40;;;;;;;12.48;4.60;;;;;;;-144.05;89.45;57018.75;5055506;28;20028;-87
2023/11/15 02:53:06;;;;;;;10.15;4.53;;;;;;;-144.05;89.81;57014.50;5039249;28;20026;-87
2023/11/15 02:55:33;;;;;;;13.13;4.65;;;;;;;-144.05;90.37;57025.13;5038513;28;20029;-84
2023/11/15 02:58:00;;;;;;;18.10;6.53;;;;;;;-144.05;90.92;57020.88;5037377;28;20044;-85
2023/11/15 03:00:29;;;;;;;14.00;6.32;;;;;;;-144.05;90.67;57003.88;5036901;28;20038;-84
2023/11/15 03:02:55;;;;;;;15.27;6.38;;;;;;;-144.05;90.25;57020.88;5019431;28;20048;-85
2023/11/15 03:05:21;;;;;;;17.85;6.68;;;;;;;-144.05;90.82;57035.75;5035446;28;20021;-89
2023/11/15 03:07:48;;;;;;;15.73;7.97;;;;;;;-144.05;90.74;57016.63;5033327;28;20045;-87
2023/11/15 03:10:15;;;;;;;17.80;7.82;;;;;;;-144.05;90.90;57023.00;5035272;28;20108;-86
2023/11/15 03:12:42;;;;;;;26.75;9.65;;;;;;;-144.05;91.12;57023.00;5034684;28;20096;-87
2023/11/15 03:15:08;;;;;;;25.90;9.35;;;;;;;-144.05;91.18;57031.50;5050182;28;20086;-86
2023/11/15 03:17:35;;;;;;;21.17;10.63;;;;;;;-144.05;91.17;56969.91;5050119;28;20275;-87
2023/11/15 03:20:01;;;;;;;24.67;9.38;;;;;;;-144.05;90.92;57006.00;5035692;28;20025;-83
2023/11/15 03:22:27;;;;;;;25.55;8.90;;;;;;;-144.05;90.80;57008.13;5035846;28;20027;-85
2023/11/15 03:24:54;;;;;;;22.45;9.38;;;;;;;-144.05;90.60;57001.75;5036265;28;20025;-87
2023/11/15 03:27:20;;;;;;;22.15;9.07;;;;;;;-144.05;90.06;56997.50;5014408;28;20022;-86
2023/11/15 03:29:46;;;;;;;21.10;9.77;;;;;;;-144.05;90.39;57006.00;5035100;28;20029;-88
2023/11/15 03:32:12;;;;;;;19.08;9.00;;;;;;;-144.05;90.47;56993.25;5050356;28;20390;-88
2023/11/15 03:34:44;;;;;;;21.80;9.63;;;10.40;99.90;;;-144.05;90.59;56986.91;5049035;28;20041;-89
2023/11/15 03:37:10;;;;;;;16.23;8.05;;;;;;;-144.05;90.79;57003.88;5035301;28;20097;-86
2023/11/15 03:39:40;;;;;;;22.80;7.97;;;;;;;-144.05;90.52;56986.91;5050777;28;20492;-88
2023/11/15 03:42:06;;;;;;;13.73;6.35;;;;;;;-144.05;90.81;57008.13;5036200;28;20402;-86
2023/11/15 03:44:32;;;;;;;8.95;5.22;;;;;;;-144.05;90.65;56991.13;5036649;28;20096;-87
2023/11/15 03:46:59;;;;;;;8.68;4.13;;;;;;;-144.05;90.02;57023.00;5029175;28;20067;-87
2023/11/15 03:49:25;;;;;;;12.07;3.83;;;;;;;-144.05;89.01;57008.13;5018384;28;20025;-88
2023/11/15 03:51:52;;;;;;;12.07;3.50;;;;;;;-144.05;88.78;57012.38;5041359;28;20017;-79
2023/11/15 03:54:19;;;;;;;9.20;3.10;;;;;;;-144.05;88.33;57006.00;5053076;28;20125;-82
2023/11/15 03:56:45;;;;;;;6.45;2.30;;;;;;;-144.05;87.75;57014.50;5049580;28;20037;-82
2023/11/15 03:59:11;;;;;;;5.93;2.25;;;;;;;-144.05;87.58;57010.25;5032228;28;20073;-83
2023/11/15 04:01:39;;;;;;;3.80;1.92;;;;;;;-144.05;88.75;57016.63;5033099;28;20022;-85
2023/11/15 04:04:05;;;;;;;3.28;1.67;;;;;;;-144.05;87.60;57031.50;5048623;28;20043;-83
2023/11/15 04:06:32;;;;;;;5.28;1.38;;;;;;;-144.05;87.05;57020.88;5048103;28;20044;-87
2023/11/15 04:08:59;;;;;;;3.72;1.23;;;;;;;-144.05;86.39;57020.88;5025766;28;20048;-85
2023/11/15 04:11:26;;;;;;;1.83;1.00;;;9.30;99.90;;;-144.05;87.05;57018.75;5033269;28;20029;-86
2023/11/15 04:13:53;;;;;;;5.07;1.15;;;;;;;-144.05;86.88;57018.75;5032486;28;20034;-83
2023/11/15 04:16:20;;;;;;;7.13;1.67;;;;;;;-144.05;86.95;57031.50;5033579;28;20130;-86
2023/11/15 04:18:46;;;;;;;5.90;1.27;;;;;;;-144.05;87.57;57018.75;5033396;28;20021;-84
2023/11/15 04:21:13;;;;;;;6.10;1.60;;;;;;;-144.05;87.50;57016.63;5034115;28;20043;-83
2023/11/15 04:23:39;;;;;;;6.68;1.50;;;;;;;-144.05;87.87;56972.03;5049647;28;20028;-85
2023/11/15 04:26:05;;;;;;;7.05;1.85;;;;;;;-144.05;88.02;56982.66;5034029;28;20030;-86
2023/11/15 04:28:32;;;;;;;8.88;2.13;;;;;;;-144.05;88.63;57014.50;5013173;28;20030;-85
2023/11/15 04:30:58;;;;;;;8.45;3.58;;;;;;;-144.05;89.67;56997.50;5036657;28;20029;-81
2023/11/15 04:33:24;;;;;;;8.65;3.85;;;;;;;-144.05;89.54;57027.25;5033239;28;20018;-82
2023/11/15 04:35:50;;;;;;;10.43;4.53;;;;;;;-144.05;89.38;57035.75;5037324;28;20289;-82
2023/11/15 04:38:17;;;;;;;7.18;4.20;;;;;;;-144.05;88.78;56976.28;5055236;28;20117;-80
2023/11/15 04:40:43;;;;;;;14.70;5.32;;;;;;;-144.05;89.26;57001.75;5037384;28;20052;-79
2023/11/15 04:43:10;;;;;;;20.83;7.28;;;;;;;-144.05;90.04;57014.50;5054824;28;20045;-79
2023/11/15 04:45:36;;;;;;;26.70;7.63;;;;;;;-144.05;90.78;57027.25;5032946;28;20059;-86
2023/11/15 04:48:03;;;;;;;22.92;7.70;;;;;;;-144.05;90.67;56999.63;5047240;28;20014;-80
2023/11/15 04:50:29;;;;;;;18.27;7.63;;;9.90;99.90;;;-144.05;91.15;57001.75;5071884;28;20084;-80
2023/11/15 04:52:56;;;;;;;18.38;8.50;;;;;;;-144.05;90.90;57029.38;5054989;28;20064;-78
2023/11/15 04:55:22;;;;;;;20.80;8.60;;;;;;;-144.05;90.23;57027.25;5038813;28;20021;-81
2023/11/15 04:57:48;;;;;;;21.30;8.55;;;;;;;-144.05;91.27;56967.78;5055692;28;20109;-80
2023/11/15 05:00:15;;;;;;;22.50;8.23;;;;;;;-144.05;91.03;56993.25;5055432;28;20040;-81
2023/11/15 05:02:41;;;;;;;24.02;9.15;;;;;;;-144.05;91.24;57001.75;5055493;28;20034;-80
2023/11/15 05:05:10;;;;;;;23.40;8.98;;;;;;;-144.05;91.15;57006.00;5055198;28;20040;-80
2023/11/15 05:07:38;;;;;;;17.50;9.35;;;;;;;-144.05;90.79;57033.63;5058549;28;20037;-80
2023/11/15 05:10:06;;;;;;;24.80;9.50;;;;;;;-144.05;91.04;56999.63;5074847;28;20021;-80
2023/11/15 05:12:32;;;;;;;22.23;8.60;;;;;;;-144.05;90.19;57006.00;5074833;28;20010;-79
2023/11/15 05:14:59;;;;;;;20.38;8.80;;;;;;;-144.05;90.11;57018.75;5051185;28;20017;-81
2023/11/15 05:17:25;;;;;;;21.10;9.35;;;;;;;-144.05;89.88;56993.25;5074520;28;20064;-83
2023/11/15 05:19:52;;;;;;;26.25;9.20;;;;;;;-144.05;90.82;57023.00;5036675;28;20041;-88
2023/11/15 05:22:18;;;;;;;29.65;9.27;;;;;;;-144.05;89.78;57012.38;5022259;28;20112;-86
2023/11/15 05:24:44;;;;;;;23.60;8.68;;;;;;;-144.05;89.23;57006.00;5054067;28;20033;-86
2023/11/15 05:27:11;;;;;;;24.98;7.97;;;;;;;-144.05;89.55;57023.00;5038633;28;20049;-87
2023/11/15 05:29:37;;;;;;;25.73;8.85;;;;;;;-144.05;89.56;57008.13;5054542;28;20116;-87
2023/11/15 05:32:04;;;;;;;18.98;7.53;;;;;;;-144.05;89.13;57001.75;5021873;28;20064;-85
2023/11/15 05:34:30;;;;;;;22.52;8.65;;;;;;;-144.05;89.79;57031.50;5039536;28;20577;-87
2023/11/15 05:36:56;;;;;;;21.75;8.32;;;;;;;-144.05;89.31;57006.00;5053125;28;20047;-84
2023/11/15 05:39:22;;;;;;;23.42;9.48;;;;;;;-144.05;88.79;57006.00;5056211;28;20029;-86
2023/11/15 05:41:49;;;;;;;22.05;8.27;;;;;;;-144.05;88.90;57016.63;5040556;28;20097;-86
2023/11/15 05:44:16;;;;;;;19.75;7.15;;;;;;;-144.05;89.44;57035.75;5050984;28;20033;-81
2023/11/15 05:46:42;;;;;;;23.23;8.52;;;;;;;-144.05;89.89;57033.63;5055412;28;20101;-84
2023/11/15 05:49:09;;;;;;;23.30;8.88;;;;;;;-144.05;90.09;57016.63;5052414;28;20029;-85
2023/11/15 05:51:36;;;;;;;25.70;9.27;;;;;;;-144.05;90.29;57025.13;5040172;28;20391;-87
2023/11/15 05:54:05;;;;;;;24.58;9.52;;;;;;;-144.05;90.55;56997.50;5041160;28;20107;-86
2023/11/15 05:56:32;;;;;;;25.42;9.20;;;10.00;99.90;;;-144.05;90.27;57006.00;5055120;28;20058;-83
2023/11/15 05:58:58;;;;;;;27.58;9.63;;;;;;;-144.05;90.31;57012.38;5046580;28;20052;-87
2023/11/15 06:01:24;;;;;;;27.80;9.00;;;;;;;-144.05;90.50;56984.78;5021548;28;20037;-86
2023/11/15 06:03:51;;;;;;;23.38;8.70;;;;;;;-144.05;90.22;57001.75;5038990;28;20509;-84
2023/11/15 06:06:17;;;;;;;22.67;9.10;;;;;;;-144.05;89.58;57023.00;5038173;28;20036;-86
2023/11/15 06:08:44;;;;;;;23.08;9.23;;;;;;;-144.05;89.52;57020.88;5037479;28;20112;-87
2023/11/15 06:11:10;;;;;;;25.00;8.57;;;;;;;-144.05;89.81;57001.75;5037536;28;20085;-88
2023/11/15 06:13:37;;;;;;;20.92;8.65;;;9.90;99.90;;;-144.05;89.77;57014.50;5037778;28;20092;-84
2023/11/15 06:16:06;;;;;;;24.90;9.25;;;10.10;99.90;;;-144.05;90.10;57006.00;5020944;28;20036;-89
2023/11/15 06:18:32;;;;;;;24.60;9.10;;;;;;;-144.05;90.46;57008.13;5033615;28;20034;-88
2023/11/15 06:20:58;;;;;;;25.92;8.63;;;;;;;-144.05;90.44;57010.25;5037705;28;20454;-85
2023/11/15 06:23:24;;;;;;;23.15;8.40;;;;;;;-144.05;89.62;56980.53;5046833;28;20029;-82
2023/11/15 06:25:51;;;;;;;20.02;8.85;;;;;;;-144.05;89.51;56974.16;5052076;28;20033;-87
2023/11/15 06:28:18;;;;;;;19.88;9.45;;;;;;;-144.05;89.59;57008.13;5054208;28;20022;-83
2023/11/15 06:30:45;;;;;;;19.95;9.50;;;;;;;-144.05;89.52;57006.00;5046115;28;20028;-87
2023/11/15 06:33:12;;;;;;;26.83;8.85;;;;;;;-144.05;89.23;56984.78;5044942;22;20066;-84
2023/11/15 06:35:38;;;;;;;18.10;8.30;;;;;;;-144.05;89.18;57023.00;5008092;28;20079;-84
2023/11/15 06:38:05;;;;;;;16.98;7.57;;;;;;;-144.05;89.84;57020.88;5009458;28;20069;-82
2023/11/15 06:40:32;;;;;;;22.63;8.30;;;;;;;-144.05;89.12;56997.50;5000275;28;20045;-83
2023/11/15 06:42:58;;;;;;;20.98;8.32;;;;;;;-144.05;88.84;57014.50;5011102;28;20080;-83
2023/11/15 06:45:24;;;;;;;25.50;8.50;;;;;;;-144.05;87.99;57031.50;5012782;28;20033;-80
2023/11/15 06:47:53;;;;;;;12.52;6.80;;;;;;;-144.05;87.99;56999.63;5019995;28;20026;-84
2023/11/15 06:50:20;;;;;;;16.63;6.82;;;;;;;-144.05;87.99;57008.13;5027046;28;20022;-82
2023/11/15 06:52:46;;;;;;;19.70;6.30;;;;;;;-144.05;88.91;57016.63;5031861;28;20380;-85
2023/11/15 06:55:13;;;;;;;15.90;6.97;;;;;;;-144.05;89.12;57018.75;5001712;28;20026;-82
2023/11/15 06:57:41;;;;;;;19.33;6.10;;;10.00;99.90;;;-144.05;88.53;57008.13;5017490;28;20027;-83
2023/11/15 07:00:11;;;;;;;17.50;5.55;;;10.30;99.90;;;-144.05;88.18;57016.63;5025487;28;20022;-83
2023/11/15 07:02:38;;;;;;;13.80;5.43;;;;;;;-144.05;87.88;56997.50;5046909;28;20128;-82
2023/11/15 07:05:10;;;;;;;15.10;5.95;;;9.90;99.90;;;-144.05;88.08;57003.88;5018562;28;20026;-83
2023/11/15 07:07:37;;;;;;;12.13;5.72;;;;;;;-144.05;88.03;57010.25;5019165;28;20026;-82
2023/11/15 07:10:06;;;;;;;18.65;5.57;;;;;;;-144.05;87.15;56978.41;5019322;28;20028;-85
2023/11/15 07:12:36;;;;;;;15.63;5.55;;;;;;;-144.05;87.71;57020.88;5012543;28;20041;-84
2023/11/15 07:15:15;;;;;;;14.57;5.75;;;;;;;-144.05;87.40;57001.75;5017726;28;20030;-83
2023/11/15 07:17:41;;;;;;;14.23;5.63;;;;;;;-144.05;87.97;56995.38;5014704;28;20036;-82
2023/11/15 07:20:09;;;;;;;15.27;5.53;;;;;;;-144.05;87.75;57010.25;5025795;28;20022;-84
2023/11/15 07:22:37;;;;;;;12.73;4.90;;;9.90;99.90;;;-144.05;87.23;57008.13;5025313;28;20406;-81
2023/11/15 07:25:04;;;;;;;19.80;5.60;;;;;;;-144.05;87.21;57010.25;5032814;28;20080;-81
2023/11/15 07:27:34;;;;;;;11.57;4.47;;;;;;;-144.05;86.84;56999.63;5012149;28;20097;-84
2023/11/15 07:30:00;;;;;;;17.90;5.47;;;;;;;-144.05;86.71;57010.25;5017644;28;20101;-84
2023/11/15 07:32:27;;;;;;;11.48;4.53;;;;;;;-144.05;86.39;57010.25;5015271;28;20067;-80
2023/11/15 07:34:54;;;;;;;16.00;5.03;;;;;;;-144.05;86.19;57023.00;5016830;28;20038;-83
2023/11/15 07:37:21;;;;;;;10.75;3.92;;;;;;;-144.05;85.71;56995.38;5017476;28;20037;-81
2023/11/15 07:39:47;;;;;;;14.85;4.40;;;;;;;-144.05;86.67;57001.75;5016399;28;20029;-84
2023/11/15 07:42:15;;;;;;;10.60;3.78;;;;;;;-144.05;85.76;57012.38;5000927;28;20111;-84
2023/11/15 07:44:43;;;;;;;14.30;3.95;;;;;;;-144.05;85.88;56997.50;5017000;28;20025;-81
2023/11/15 07:47:14;;;;;;;12.82;3.75;;;;;;;-144.05;85.77;56986.91;5018936;28;20032;-83
2023/11/15 07:49:41;;;;;;;10.75;4.22;;;;;;;-144.05;86.74;57040.00;5014163;28;20022;-84
2023/11/15 07:52:07;;;;;;;8.80;4.38;;;;;;;-144.05;86.82;57006.00;5017349;28;20033;-85
2023/11/15 07:54:33;;;;;;;12.38;4.80;;;;;;;-144.05;86.55;57001.75;5015963;28;20059;-83
2023/11/15 07:56:59;;;;;;;17.05;4.93;;;;;;;-144.05;86.88;56993.25;5016253;28;20146;-81
2023/11/15 07:59:26;;;;;;;12.93;4.55;;;10.10;99.90;;;-144.05;87.17;56986.91;5023212;28;20503;-84
2023/11/15 08:01:53;;;;;;;15.65;4.25;;;;;;;-144.05;86.94;56984.78;5016419;28;20022;-86
2023/11/15 08:04:21;;;;;;;12.90;4.60;;;;;;;-144.05;87.35;57003.88;5008916;28;20026;-84
2023/11/15 08:06:49;;;;;;;14.25;5.00;;;10.10;99.90;;;-144.05;87.96;57031.50;5018155;28;20097;-84
2023/11/15 08:09:24;;;;;;;16.27;5.65;;;;;;;-144.05;87.25;57035.75;5023860;28;20022;-87
2023/11/15 08:11:53;;;;;;;20.65;6.53;;;;;;;-144.05;86.83;57006.00;5018582;28;20022;-82
2023/11/15 08:14:21;;;;;;;19.27;5.70;;;;;;;-144.05;86.58;57018.75;5016840;28;20054;-86
2023/11/15 08:16:49;;;;;;;23.55;5.38;;;;;;;-144.05;87.06;57010.25;5016722;28;20030;-87
2023/11/15 08:19:15;;;;;;;16.73;5.53;;;;;;;-144.05;87.30;56993.25;5005293;28;20041;-85
2023/11/15 08:21:42;;;;;;;21.02;6.47;;;;;;;-144.05;87.21;57008.13;5000718;28;20246;-84
2023/11/15 08:24:13;;;;;;;10.85;5.47;;;10.30;99.90;;;-144.05;86.85;57001.75;5017189;28;20033;-83
2023/11/15 08:26:39;;;;;;;15.23;5.65;;;;;;;-144.05;86.19;57012.38;5024245;28;20026;-85
2023/11/15 08:29:06;;;;;;;17.67;5.38;;;;;;;-144.05;85.32;57018.75;5016957;28;20048;-83
2023/11/15 08:31:33;;;;;;;12.93;5.28;;;;;;;-144.05;85.97;56997.50;5006249;28;20049;-84
2023/11/15 08:33:59;;;;;;;20.42;6.68;;;;;;;-144.05;85.34;56997.50;5023771;28;20036;-85
2023/11/15 08:36:25;;;;;;;15.82;5.75;;;;;;;-144.05;85.01;57023.00;5018183;28;20029;-86
2023/11/15 08:38:52;;;;;;;12.75;6.05;;;;;;;-144.05;85.66;56997.50;5019008;28;20033;-83
2023/11/15 08:41:18;;;;;;;17.85;5.15;;;;;;;-144.05;85.24;56980.53;5014935;28;20371;-83
2023/11/15 08:43:44;;;;;;;17.50;5.35;;;;;;;-144.05;85.07;56999.63;5020968;28;20034;-84
2023/11/15 08:46:11;;;;;;;15.13;5.45;;;;;;;-144.05;84.62;56989.00;5026127;28;20029;-84
2023/11/15 08:48:39;;;;;;;14.18;6.28;;;;;;;-144.05;84.19;57001.75;5028211;28;20056;-86
2023/11/15 08:51:10;;;;;;;16.65;4.63;;;;;;;-144.05;84.18;56986.91;5030545;28;20044;-84
2023/11/15 08:53:37;;;;;;;14.23;6.03;;;;;;;-144.05;84.14;57008.13;5032740;28;20026;-83
2023/11/15 08:56:07;;;;;;;16.00;5.38;;;10.80;99.90;;;-144.05;84.01;57010.25;5023863;28;20030;-84
2023/11/15 08:58:33;;;;;;;16.58;5.38;;;10.50;99.90;;;-144.05;84.46;56967.78;5016710;28;20030;-82
2023/11/15 09:01:02;;;;;;;20.13;4.45;;;;;;;-144.05;84.60;57014.50;5032807;28;20034;-86
2023/11/15 09:03:28;;;;;;;15.68;5.18;;;;;;;-144.05;84.51;57001.75;5013688;28;20022;-85
2023/11/15 09:05:55;;;;;;;15.57;4.78;;;;;;;-144.05;84.00;56989.00;5032938;28;20034;-84
2023/11/15 09:08:22;;;;;;;21.13;5.10;;;;;;;-144.05;83.46;56997.50;5028348;28;20033;-85
2023/11/15 09:10:51;;;;;;;19.92;5.03;;;11.10;99.90;;;-144.05;83.04;56982.66;5004083;28;20030;-86
2023/11/15 09:13:19;;;;;;;12.77;5.05;;;;;;;-144.05;83.34;57018.75;5012885;28;20113;-83
2023/11/15 09:15:52;;;;;;;16.25;5.85;;;10.60;99.90;;;-144.05;83.07;56972.03;5008937;28;20106;-83
2023/11/15 09:18:23;;;;;;;16.38;5.68;;;;;;;-144.05;83.27;56991.13;5015510;28;20053;-84
2023/11/15 09:20:50;;;;;;;19.75;5.30;;;;;;;-144.05;82.56;57020.88;5016600;28;20025;-83
2023/11/15 09:23:16;;;;;;;13.70;4.78;;;;;;;-144.05;82.77;56991.13;5026812;28;20112;-84
2023/11/15 09:25:43;;;;;;;19.80;4.47;;;10.90;99.90;;;-144.05;82.24;56984.78;5017808;28;20038;-84
2023/11/15 09:28:14;;;;;;;15.80;4.65;;;10.90;99.90;;;-144.05;82.14;57016.63;5008984;28;20030;-82
2023/11/15 09:30:43;;;;;;;13.50;4.70;;;11.00;99.90;;;-144.05;82.26;56995.38;5017234;28;20052;-85
2023/11/15 09:33:10;;;;;;;10.63;5.57;;;;;;;-144.05;82.37;57014.50;5012951;28;20033;-84
2023/11/15 09:35:38;;;;;;;15.75;4.70;;;;;;;-144.05;82.02;56997.50;5018238;28;20079;-84
2023/11/15 09:38:04;;;;;;;21.70;5.15;;;;;;;-144.05;81.07;56999.63;5010572;28;20034;-83
2023/11/15 09:40:30;;;;;;;10.30;5.45;;;;;;;-144.05;80.97;57003.88;5010512;28;20033;-83
2023/11/15 09:43:02;;;;;;;16.40;4.13;;;10.90;99.90;;;-144.05;81.41;57001.75;5036117;28;20030;-84
2023/11/15 09:45:33;;;;;;;12.23;4.57;;;10.70;99.90;;;-144.05;81.76;56959.28;5015372;28;20480;-86
2023/11/15 09:48:00;;;;;;;16.65;4.40;;;;;;;-144.05;81.48;57020.88;5032423;28;20430;-83
2023/11/15 09:50:31;;;;;;;14.75;4.15;;;11.00;99.90;;;-144.05;80.61;56999.63;5005462;28;20030;-83
2023/11/15 09:53:05;;;;;;;13.95;4.75;;;11.20;99.90;;;-144.05;80.42;56986.91;5016366;28;20053;-84
2023/11/15 09:55:33;;;;;;;18.33;4.97;;;;;;;-144.05;80.19;56997.50;5004955;28;20168;-84
2023/11/15 09:58:00;;;;;;;16.65;4.57;;;;;;;-144.05;79.92;56989.00;5016547;28;20072;-84
2023/11/15 10:00:29;;;;;;;14.45;5.22;;;10.80;99.90;;;-144.05;79.46;57001.75;5016842;28;20030;-85
2023/11/15 10:02:56;;;;;;;14.07;4.18;;;10.90;99.90;;;-144.05;79.98;57003.88;5005780;28;20032;-85
2023/11/15 10:05:26;;;;;;;19.13;4.38;;;10.90;99.90;;;-144.05;79.74;57003.88;5004294;28;20026;-83
2023/11/15 10:08:10;;;;;;;13.25;3.55;;;10.70;99.90;;;-144.05;80.06;56967.78;5014167;28;20022;-85
2023/11/15 10:10:39;;;;;;;15.13;4.30;;;;;;;-144.05;81.04;56999.63;5013743;28;20061;-83
2023/11/15 10:13:18;;;;;;;15.02;5.40;;;10.70;99.90;;;-144.05;81.27;57001.75;5012170;28;20114;-85
2023/11/15 10:15:46;;;;;;;13.10;4.32;;;10.60;99.90;;;-144.05;81.49;56997.50;5011596;28;20041;-83
2023/11/15 10:18:28;;;;;;;9.73;3.55;;;;;;;-144.05;81.49;57012.38;5008571;28;20091;-84
2023/11/15 10:21:20;;;;;;;10.85;3.35;;;10.40;99.90;;;-144.05;82.00;57010.25;5008206;28;20022;-84
2023/11/15 10:23:47;;;;;;;11.57;3.20;;;;;;;-144.05;80.92;56982.66;5007344;28;20101;-84
2023/11/15 10:26:13;;;;;;;8.05;3.00;;;;;;;-144.05;81.09;57018.75;5013709;28;20028;-83
2023/11/15 10:28:40;;;;;;;7.07;2.90;;;;;;;-144.05;80.60;56997.50;5014261;28;20034;-86
2023/11/15 10:31:12;;;;;;;7.25;2.85;;;7.70;99.90;;;-144.05;80.44;56995.38;5015766;28;20506;-85
2023/11/15 10:33:45;;;;;;;6.80;3.33;;;;;;;-144.05;81.35;57006.00;5007549;28;20083;-82
2023/11/15 10:36:22;;;;;;;12.23;4.00;;;;;;;-144.05;81.59;57001.75;5016827;28;20494;-84
2023/11/15 10:38:54;;;;;;;13.18;4.05;;;10.30;99.90;;;-144.05;81.74;57006.00;5015734;28;20057;-83
2023/11/15 10:41:24;;;;;;;12.18;3.70;;;10.30;99.90;;;-144.05;81.41;56967.78;5014526;28;20021;-82
2023/11/15 10:43:55;;;;;;;13.20;3.85;;;;;;;-144.05;80.97;56989.00;5024411;28;20057;-82
2023/11/15 10:46:30;;;;;;;12.02;3.65;;;7.60;99.90;;;-144.05;82.10;56955.03;5014809;28;20407;-84
2023/11/15 10:48:59;;;;;;;18.67;3.92;;;10.40;99.90;;;-144.05;82.26;57001.75;5037843;28;20033;-84
2023/11/15 10:51:41;;;;;;;17.70;5.10;;;10.40;99.90;;;-144.05;83.39;57010.25;5038837;28;20034;-82
2023/11/15 10:54:14;;;;;;;9.05;3.72;;;7.60;99.90;;;-144.05;83.27;56999.63;5014811;28;20053;-84
2023/11/15 10:56:41;;;;;;;18.30;4.95;;;10.40;99.90;;;-144.05;84.09;56986.91;4997032;28;20068;-83
2023/11/15 10:59:10;;;;;;;17.20;5.75;;;10.50;99.90;;;-144.05;83.87;57012.38;5012905;28;20040;-83